sensor_id;sensor_type;location;lat;lon;timestamp;P1;durP1;ratioP1;P2;durP2;ratioP2
14849;SDS011;7517;48.400;11.770;2022-11-10T00:01:15;3.27;;;3.07;;
14849;SDS011;7517;48.400;11.770;2022-11-10T00:03:43;3.50;;;3.20;;
14849;SDS011;7517;48.400;11.770;2022-11-10T00:06:10;3.47;;;3.27;;
14849;SDS011;7517;48.400;11.770;2022-11-10T00:08:37;5.50;;;3.27;;
14849;SDS011;7517;48.400;11.770;2022-11-10T00:11:06;3.10;;;2.90;;
14849;SDS011;7517;48.400;11.770;2022-11-10T00:13:34;3.07;;;2.83;;
14849;SDS011;7517;48.400;11.770;2022-11-10T00:16:23;3.07;;;2.80;;
14849;SDS011;7517;48.400;11.770;2022-11-10T00:19:08;3.13;;;2.90;;
14849;SDS011;7517;48.400;11.770;2022-11-10T00:21:36;3.30;;;3.10;;
14849;SDS011;7517;48.400;11.770;2022-11-10T00:24:03;3.53;;;3.33;;
14849;SDS011;7517;48.400;11.770;2022-11-10T00:26:32;3.27;;;3.07;;
14849;SDS011;7517;48.400;11.770;2022-11-10T00:28:59;3.30;;;3.10;;
14849;SDS011;7517;48.400;11.770;2022-11-10T00:31:27;2.97;;;2.73;;
14849;SDS011;7517;48.400;11.770;2022-11-10T00:33:54;3.80;;;3.20;;
14849;SDS011;7517;48.400;11.770;2022-11-10T00:36:21;3.03;;;2.83;;
14849;SDS011;7517;48.400;11.770;2022-11-10T00:38:49;3.10;;;2.90;;
14849;SDS011;7517;48.400;11.770;2022-11-10T00:41:17;3.17;;;2.97;;
14849;SDS011;7517;48.400;11.770;2022-11-10T00:43:45;3.53;;;3.30;;
14849;SDS011;7517;48.400;11.770;2022-11-10T00:46:13;3.13;;;2.93;;
14849;SDS011;7517;48.400;11.770;2022-11-10T00:48:41;3.30;;;3.10;;
14849;SDS011;7517;48.400;11.770;2022-11-10T00:51:08;3.10;;;2.90;;
14849;SDS011;7517;48.400;11.770;2022-11-10T00:53:45;3.13;;;2.87;;
14849;SDS011;7517;48.400;11.770;2022-11-10T00:56:12;3.07;;;2.87;;
14849;SDS011;7517;48.400;11.770;2022-11-10T00:58:40;3.00;;;2.80;;
14849;SDS011;7517;48.400;11.770;2022-11-10T01:01:09;2.90;;;2.70;;
14849;SDS011;7517;48.400;11.770;2022-11-10T01:03:38;3.20;;;2.90;;
14849;SDS011;7517;48.400;11.770;2022-11-10T01:06:06;2.70;;;2.50;;
14849;SDS011;7517;48.400;11.770;2022-11-10T01:08:36;2.83;;;2.63;;
14849;SDS011;7517;48.400;11.770;2022-11-10T01:11:05;2.90;;;2.70;;
14849;SDS011;7517;48.400;11.770;2022-11-10T01:13:34;3.23;;;3.03;;
14849;SDS011;7517;48.400;11.770;2022-11-10T01:16:02;2.93;;;2.73;;
14849;SDS011;7517;48.400;11.770;2022-11-10T01:18:32;3.00;;;2.80;;
14849;SDS011;7517;48.400;11.770;2022-11-10T01:21:00;2.97;;;2.77;;
14849;SDS011;7517;48.400;11.770;2022-11-10T01:23:28;3.03;;;2.83;;
14849;SDS011;7517;48.400;11.770;2022-11-10T01:25:55;2.77;;;2.57;;
14849;SDS011;7517;48.400;11.770;2022-11-10T01:28:24;2.80;;;2.60;;
14849;SDS011;7517;48.400;11.770;2022-11-10T01:30:55;2.70;;;2.60;;
14849;SDS011;7517;48.400;11.770;2022-11-10T01:33:23;2.90;;;2.70;;
14849;SDS011;7517;48.400;11.770;2022-11-10T01:35:52;2.83;;;2.63;;
14849;SDS011;7517;48.400;11.770;2022-11-10T01:38:20;3.00;;;2.80;;
14849;SDS011;7517;48.400;11.770;2022-11-10T01:40:47;2.40;;;2.20;;
14849;SDS011;7517;48.400;11.770;2022-11-10T01:43:15;2.70;;;2.50;;
14849;SDS011;7517;48.400;11.770;2022-11-10T01:45:43;2.37;;;2.27;;
14849;SDS011;7517;48.400;11.770;2022-11-10T01:48:16;2.37;;;2.27;;
14849;SDS011;7517;48.400;11.770;2022-11-10T01:50:58;1.97;;;1.87;;
14849;SDS011;7517;48.400;11.770;2022-11-10T01:53:30;2.23;;;2.13;;
14849;SDS011;7517;48.400;11.770;2022-11-10T01:56:01;2.00;;;1.90;;
14849;SDS011;7517;48.400;11.770;2022-11-10T01:58:31;2.40;;;2.30;;
14849;SDS011;7517;48.400;11.770;2022-11-10T02:01:04;2.33;;;1.93;;
14849;SDS011;7517;48.400;11.770;2022-11-10T02:03:33;1.70;;;1.60;;
14849;SDS011;7517;48.400;11.770;2022-11-10T02:06:08;1.90;;;1.80;;
14849;SDS011;7517;48.400;11.770;2022-11-10T02:08:36;2.20;;;2.00;;
14849;SDS011;7517;48.400;11.770;2022-11-10T02:11:05;1.77;;;1.57;;
14849;SDS011;7517;48.400;11.770;2022-11-10T02:13:32;1.97;;;1.87;;
14849;SDS011;7517;48.400;11.770;2022-11-10T02:15:59;1.60;;;1.50;;
14849;SDS011;7517;48.400;11.770;2022-11-10T02:18:27;1.50;;;1.40;;
14849;SDS011;7517;48.400;11.770;2022-11-10T02:20:55;1.27;;;1.23;;
14849;SDS011;7517;48.400;11.770;2022-11-10T02:26:13;0.63;;;0.63;;
14849;SDS011;7517;48.400;11.770;2022-11-10T02:28:45;0.70;;;0.60;;
14849;SDS011;7517;48.400;11.770;2022-11-10T02:31:13;0.60;;;0.60;;
14849;SDS011;7517;48.400;11.770;2022-11-10T02:33:41;1.00;;;0.60;;
14849;SDS011;7517;48.400;11.770;2022-11-10T02:36:10;0.50;;;0.50;;
14849;SDS011;7517;48.400;11.770;2022-11-10T02:38:37;0.83;;;0.60;;
14849;SDS011;7517;48.400;11.770;2022-11-10T02:41:05;0.30;;;0.30;;
14849;SDS011;7517;48.400;11.770;2022-11-10T02:43:32;0.40;;;0.40;;
14849;SDS011;7517;48.400;11.770;2022-11-10T02:46:02;1.50;;;0.57;;
14849;SDS011;7517;48.400;11.770;2022-11-10T02:48:29;0.97;;;0.37;;
14849;SDS011;7517;48.400;11.770;2022-11-10T02:50:56;0.40;;;0.40;;
14849;SDS011;7517;48.400;11.770;2022-11-10T02:53:25;0.30;;;0.30;;
14849;SDS011;7517;48.400;11.770;2022-11-10T02:55:52;0.67;;;0.40;;
14849;SDS011;7517;48.400;11.770;2022-11-10T02:58:19;1.63;;;0.37;;
14849;SDS011;7517;48.400;11.770;2022-11-10T03:00:46;1.30;;;0.50;;
14849;SDS011;7517;48.400;11.770;2022-11-10T03:03:13;0.40;;;0.40;;
14849;SDS011;7517;48.400;11.770;2022-11-10T03:05:41;0.83;;;0.60;;
14849;SDS011;7517;48.400;11.770;2022-11-10T03:08:08;2.13;;;0.43;;
14849;SDS011;7517;48.400;11.770;2022-11-10T03:10:36;0.40;;;0.40;;
14849;SDS011;7517;48.400;11.770;2022-11-10T03:13:03;0.87;;;0.50;;
14849;SDS011;7517;48.400;11.770;2022-11-10T03:15:31;0.53;;;0.50;;
14849;SDS011;7517;48.400;11.770;2022-11-10T03:18:01;0.50;;;0.40;;
14849;SDS011;7517;48.400;11.770;2022-11-10T03:20:29;2.03;;;0.30;;
14849;SDS011;7517;48.400;11.770;2022-11-10T03:23:00;1.00;;;0.40;;
14849;SDS011;7517;48.400;11.770;2022-11-10T03:25:28;0.70;;;0.50;;
14849;SDS011;7517;48.400;11.770;2022-11-10T03:27:57;0.87;;;0.40;;
14849;SDS011;7517;48.400;11.770;2022-11-10T03:30:25;0.77;;;0.30;;
14849;SDS011;7517;48.400;11.770;2022-11-10T03:32:53;0.33;;;0.20;;
14849;SDS011;7517;48.400;11.770;2022-11-10T03:35:20;1.50;;;0.50;;
14849;SDS011;7517;48.400;11.770;2022-11-10T03:37:47;1.00;;;0.50;;
14849;SDS011;7517;48.400;11.770;2022-11-10T03:40:14;0.40;;;0.40;;
14849;SDS011;7517;48.400;11.770;2022-11-10T03:42:42;1.50;;;0.43;;
14849;SDS011;7517;48.400;11.770;2022-11-10T03:45:12;1.00;;;0.43;;
14849;SDS011;7517;48.400;11.770;2022-11-10T03:47:40;0.47;;;0.40;;
14849;SDS011;7517;48.400;11.770;2022-11-10T03:50:11;3.33;;;0.40;;
14849;SDS011;7517;48.400;11.770;2022-11-10T03:52:39;1.40;;;0.50;;
14849;SDS011;7517;48.400;11.770;2022-11-10T03:55:08;0.90;;;0.50;;
14849;SDS011;7517;48.400;11.770;2022-11-10T03:57:37;1.27;;;0.47;;
14849;SDS011;7517;48.400;11.770;2022-11-10T04:00:05;1.80;;;0.60;;
14849;SDS011;7517;48.400;11.770;2022-11-10T04:02:37;0.80;;;0.40;;
14849;SDS011;7517;48.400;11.770;2022-11-10T04:05:05;1.20;;;0.40;;
14849;SDS011;7517;48.400;11.770;2022-11-10T04:08:00;2.10;;;0.70;;
14849;SDS011;7517;48.400;11.770;2022-11-10T04:10:45;1.90;;;0.60;;
14849;SDS011;7517;48.400;11.770;2022-11-10T04:13:12;0.53;;;0.53;;
14849;SDS011;7517;48.400;11.770;2022-11-10T04:15:57;1.20;;;0.70;;
14849;SDS011;7517;48.400;11.770;2022-11-10T04:18:25;2.87;;;0.80;;
14849;SDS011;7517;48.400;11.770;2022-11-10T04:20:54;2.97;;;0.50;;
14849;SDS011;7517;48.400;11.770;2022-11-10T04:23:24;0.50;;;0.50;;
14849;SDS011;7517;48.400;11.770;2022-11-10T04:25:55;1.33;;;0.50;;
14849;SDS011;7517;48.400;11.770;2022-11-10T04:28:43;1.03;;;0.30;;
14849;SDS011;7517;48.400;11.770;2022-11-10T04:31:12;2.33;;;0.70;;
14849;SDS011;7517;48.400;11.770;2022-11-10T04:33:42;1.30;;;0.50;;
14849;SDS011;7517;48.400;11.770;2022-11-10T04:36:10;0.90;;;0.60;;
14849;SDS011;7517;48.400;11.770;2022-11-10T04:38:40;0.40;;;0.40;;
14849;SDS011;7517;48.400;11.770;2022-11-10T04:41:08;0.60;;;0.40;;
14849;SDS011;7517;48.400;11.770;2022-11-10T04:43:36;1.60;;;0.40;;
14849;SDS011;7517;48.400;11.770;2022-11-10T04:46:04;0.77;;;0.60;;
14849;SDS011;7517;48.400;11.770;2022-11-10T04:48:34;3.13;;;0.50;;
14849;SDS011;7517;48.400;11.770;2022-11-10T04:51:03;0.40;;;0.40;;
14849;SDS011;7517;48.400;11.770;2022-11-10T04:53:32;0.80;;;0.70;;
14849;SDS011;7517;48.400;11.770;2022-11-10T04:55:59;1.80;;;0.83;;
14849;SDS011;7517;48.400;11.770;2022-11-10T04:58:27;1.10;;;0.60;;
14849;SDS011;7517;48.400;11.770;2022-11-10T05:00:54;0.40;;;0.40;;
14849;SDS011;7517;48.400;11.770;2022-11-10T05:03:21;2.10;;;0.77;;
14849;SDS011;7517;48.400;11.770;2022-11-10T05:05:50;3.90;;;0.83;;
14849;SDS011;7517;48.400;11.770;2022-11-10T05:08:19;1.00;;;0.73;;
14849;SDS011;7517;48.400;11.770;2022-11-10T05:10:46;1.80;;;0.87;;
14849;SDS011;7517;48.400;11.770;2022-11-10T05:13:13;0.70;;;0.70;;
14849;SDS011;7517;48.400;11.770;2022-11-10T05:15:40;0.60;;;0.60;;
14849;SDS011;7517;48.400;11.770;2022-11-10T05:18:07;1.20;;;0.80;;
14849;SDS011;7517;48.400;11.770;2022-11-10T05:20:35;0.80;;;0.60;;
14849;SDS011;7517;48.400;11.770;2022-11-10T05:23:02;1.17;;;0.80;;
14849;SDS011;7517;48.400;11.770;2022-11-10T05:25:48;1.13;;;1.00;;
14849;SDS011;7517;48.400;11.770;2022-11-10T05:28:15;2.20;;;1.23;;
14849;SDS011;7517;48.400;11.770;2022-11-10T05:30:42;1.27;;;1.10;;
14849;SDS011;7517;48.400;11.770;2022-11-10T05:33:10;1.87;;;0.70;;
14849;SDS011;7517;48.400;11.770;2022-11-10T05:35:37;0.93;;;0.90;;
14849;SDS011;7517;48.400;11.770;2022-11-10T05:38:05;1.30;;;1.20;;
14849;SDS011;7517;48.400;11.770;2022-11-10T05:40:33;4.03;;;1.57;;
14849;SDS011;7517;48.400;11.770;2022-11-10T05:43:02;2.37;;;1.37;;
14849;SDS011;7517;48.400;11.770;2022-11-10T05:45:29;2.07;;;1.40;;
14849;SDS011;7517;48.400;11.770;2022-11-10T05:47:56;1.50;;;1.10;;
14849;SDS011;7517;48.400;11.770;2022-11-10T05:50:24;1.63;;;1.17;;
14849;SDS011;7517;48.400;11.770;2022-11-10T05:52:52;1.03;;;0.97;;
14849;SDS011;7517;48.400;11.770;2022-11-10T05:55:21;1.43;;;1.33;;
14849;SDS011;7517;48.400;11.770;2022-11-10T05:57:53;1.30;;;1.20;;
14849;SDS011;7517;48.400;11.770;2022-11-10T06:00:24;1.90;;;1.10;;
14849;SDS011;7517;48.400;11.770;2022-11-10T06:02:57;1.17;;;1.10;;
14849;SDS011;7517;48.400;11.770;2022-11-10T06:05:26;1.30;;;1.20;;
14849;SDS011;7517;48.400;11.770;2022-11-10T06:07:55;1.27;;;1.17;;
14849;SDS011;7517;48.400;11.770;2022-11-10T06:10:23;1.33;;;1.23;;
14849;SDS011;7517;48.400;11.770;2022-11-10T06:12:50;1.03;;;1.03;;
14849;SDS011;7517;48.400;11.770;2022-11-10T06:15:18;1.50;;;1.40;;
14849;SDS011;7517;48.400;11.770;2022-11-10T06:17:48;1.50;;;1.40;;
14849;SDS011;7517;48.400;11.770;2022-11-10T06:20:15;4.00;;;1.40;;
14849;SDS011;7517;48.400;11.770;2022-11-10T06:22:43;1.40;;;1.13;;
14849;SDS011;7517;48.400;11.770;2022-11-10T06:25:22;1.77;;;1.33;;
14849;SDS011;7517;48.400;11.770;2022-11-10T06:27:50;3.40;;;2.03;;
14849;SDS011;7517;48.400;11.770;2022-11-10T06:30:17;2.37;;;2.13;;
14849;SDS011;7517;48.400;11.770;2022-11-10T06:32:45;2.50;;;2.30;;
14849;SDS011;7517;48.400;11.770;2022-11-10T06:35:13;1.90;;;1.80;;
14849;SDS011;7517;48.400;11.770;2022-11-10T06:37:41;2.40;;;2.20;;
14849;SDS011;7517;48.400;11.770;2022-11-10T06:40:09;2.47;;;1.90;;
14849;SDS011;7517;48.400;11.770;2022-11-10T06:42:38;2.37;;;2.17;;
14849;SDS011;7517;48.400;11.770;2022-11-10T06:45:05;2.27;;;2.07;;
14849;SDS011;7517;48.400;11.770;2022-11-10T06:47:33;1.87;;;1.77;;
14849;SDS011;7517;48.400;11.770;2022-11-10T06:50:01;4.57;;;3.63;;
14849;SDS011;7517;48.400;11.770;2022-11-10T06:52:29;3.80;;;3.40;;
14849;SDS011;7517;48.400;11.770;2022-11-10T06:54:57;5.43;;;3.93;;
14849;SDS011;7517;48.400;11.770;2022-11-10T06:57:24;2.80;;;2.60;;
14849;SDS011;7517;48.400;11.770;2022-11-10T06:59:52;4.97;;;2.60;;
14849;SDS011;7517;48.400;11.770;2022-11-10T07:02:19;6.97;;;2.27;;
14849;SDS011;7517;48.400;11.770;2022-11-10T07:04:46;2.20;;;2.07;;
14849;SDS011;7517;48.400;11.770;2022-11-10T07:07:14;1.87;;;1.77;;
14849;SDS011;7517;48.400;11.770;2022-11-10T07:09:43;1.77;;;1.67;;
14849;SDS011;7517;48.400;11.770;2022-11-10T07:12:10;2.13;;;1.93;;
14849;SDS011;7517;48.400;11.770;2022-11-10T07:14:38;2.40;;;1.50;;
14849;SDS011;7517;48.400;11.770;2022-11-10T07:17:05;2.40;;;2.23;;
14849;SDS011;7517;48.400;11.770;2022-11-10T07:19:32;4.90;;;4.07;;
14849;SDS011;7517;48.400;11.770;2022-11-10T07:21:59;8.50;;;7.77;;
14849;SDS011;7517;48.400;11.770;2022-11-10T07:24:27;6.93;;;6.30;;
14849;SDS011;7517;48.400;11.770;2022-11-10T07:26:56;5.40;;;4.90;;
14849;SDS011;7517;48.400;11.770;2022-11-10T07:29:23;3.73;;;3.43;;
14849;SDS011;7517;48.400;11.770;2022-11-10T07:31:51;3.07;;;2.77;;
14849;SDS011;7517;48.400;11.770;2022-11-10T07:34:19;2.43;;;2.23;;
14849;SDS011;7517;48.400;11.770;2022-11-10T07:36:46;2.87;;;2.20;;
14849;SDS011;7517;48.400;11.770;2022-11-10T07:39:14;1.93;;;1.83;;
14849;SDS011;7517;48.400;11.770;2022-11-10T07:41:41;3.00;;;1.80;;
14849;SDS011;7517;48.400;11.770;2022-11-10T07:44:10;2.20;;;1.97;;
14849;SDS011;7517;48.400;11.770;2022-11-10T07:46:37;2.20;;;1.90;;
14849;SDS011;7517;48.400;11.770;2022-11-10T07:49:04;2.47;;;1.73;;
14849;SDS011;7517;48.400;11.770;2022-11-10T07:51:32;2.00;;;1.80;;
14849;SDS011;7517;48.400;11.770;2022-11-10T07:53:59;1.93;;;1.80;;
14849;SDS011;7517;48.400;11.770;2022-11-10T07:56:26;1.67;;;1.57;;
14849;SDS011;7517;48.400;11.770;2022-11-10T07:58:53;1.50;;;1.40;;
14849;SDS011;7517;48.400;11.770;2022-11-10T08:01:22;1.57;;;1.47;;
14849;SDS011;7517;48.400;11.770;2022-11-10T08:03:49;1.37;;;1.30;;
14849;SDS011;7517;48.400;11.770;2022-11-10T08:06:16;1.50;;;1.40;;
14849;SDS011;7517;48.400;11.770;2022-11-10T08:08:44;2.33;;;1.20;;
14849;SDS011;7517;48.400;11.770;2022-11-10T08:11:12;1.10;;;1.00;;
14849;SDS011;7517;48.400;11.770;2022-11-10T08:13:40;2.20;;;1.70;;
14849;SDS011;7517;48.400;11.770;2022-11-10T08:16:07;1.43;;;1.27;;
14849;SDS011;7517;48.400;11.770;2022-11-10T08:18:36;1.90;;;1.20;;
14849;SDS011;7517;48.400;11.770;2022-11-10T08:21:03;3.33;;;1.10;;
14849;SDS011;7517;48.400;11.770;2022-11-10T08:23:31;2.57;;;1.13;;
14849;SDS011;7517;48.400;11.770;2022-11-10T08:25:58;2.03;;;1.30;;
14849;SDS011;7517;48.400;11.770;2022-11-10T08:28:27;1.60;;;1.10;;
14849;SDS011;7517;48.400;11.770;2022-11-10T08:30:54;1.50;;;1.40;;
14849;SDS011;7517;48.400;11.770;2022-11-10T08:33:22;2.30;;;1.20;;
14849;SDS011;7517;48.400;11.770;2022-11-10T08:35:50;1.93;;;1.10;;
14849;SDS011;7517;48.400;11.770;2022-11-10T08:38:18;1.77;;;1.47;;
14849;SDS011;7517;48.400;11.770;2022-11-10T08:40:47;1.37;;;1.07;;
14849;SDS011;7517;48.400;11.770;2022-11-10T08:43:15;1.97;;;1.07;;
14849;SDS011;7517;48.400;11.770;2022-11-10T08:45:44;1.50;;;1.23;;
14849;SDS011;7517;48.400;11.770;2022-11-10T08:48:12;1.57;;;1.30;;
14849;SDS011;7517;48.400;11.770;2022-11-10T08:50:41;1.17;;;1.07;;
14849;SDS011;7517;48.400;11.770;2022-11-10T08:53:11;1.77;;;1.10;;
14849;SDS011;7517;48.400;11.770;2022-11-10T08:55:41;1.40;;;1.10;;
14849;SDS011;7517;48.400;11.770;2022-11-10T08:58:10;1.10;;;1.10;;
14849;SDS011;7517;48.400;11.770;2022-11-10T09:00:39;2.20;;;1.40;;
14849;SDS011;7517;48.400;11.770;2022-11-10T09:03:09;1.40;;;1.30;;
14849;SDS011;7517;48.400;11.770;2022-11-10T09:05:39;1.40;;;1.30;;
14849;SDS011;7517;48.400;11.770;2022-11-10T09:08:07;1.50;;;1.40;;
14849;SDS011;7517;48.400;11.770;2022-11-10T09:10:37;1.50;;;1.40;;
14849;SDS011;7517;48.400;11.770;2022-11-10T09:13:06;2.03;;;1.20;;
14849;SDS011;7517;48.400;11.770;2022-11-10T09:15:35;1.40;;;1.30;;
14849;SDS011;7517;48.400;11.770;2022-11-10T09:18:03;2.20;;;1.50;;
14849;SDS011;7517;48.400;11.770;2022-11-10T09:20:34;2.17;;;1.60;;
14849;SDS011;7517;48.400;11.770;2022-11-10T09:23:03;1.67;;;1.30;;
14849;SDS011;7517;48.400;11.770;2022-11-10T09:25:31;1.80;;;1.30;;
14849;SDS011;7517;48.400;11.770;2022-11-10T09:28:00;2.77;;;1.67;;
14849;SDS011;7517;48.400;11.770;2022-11-10T09:30:27;1.20;;;1.10;;
14849;SDS011;7517;48.400;11.770;2022-11-10T09:32:55;1.50;;;1.20;;
14849;SDS011;7517;48.400;11.770;2022-11-10T09:35:24;1.77;;;1.60;;
14849;SDS011;7517;48.400;11.770;2022-11-10T09:37:52;2.13;;;1.27;;
14849;SDS011;7517;48.400;11.770;2022-11-10T09:40:21;1.40;;;1.10;;
14849;SDS011;7517;48.400;11.770;2022-11-10T09:42:55;2.60;;;1.20;;
14849;SDS011;7517;48.400;11.770;2022-11-10T09:45:27;2.67;;;1.20;;
14849;SDS011;7517;48.400;11.770;2022-11-10T09:47:59;1.33;;;0.93;;
14849;SDS011;7517;48.400;11.770;2022-11-10T09:50:35;2.37;;;1.20;;
14849;SDS011;7517;48.400;11.770;2022-11-10T09:53:13;0.90;;;0.90;;
14849;SDS011;7517;48.400;11.770;2022-11-10T09:55:47;2.30;;;1.20;;
14849;SDS011;7517;48.400;11.770;2022-11-10T09:58:19;1.50;;;0.90;;
14849;SDS011;7517;48.400;11.770;2022-11-10T10:00:51;1.73;;;1.00;;
14849;SDS011;7517;48.400;11.770;2022-11-10T10:03:33;1.17;;;0.93;;
14849;SDS011;7517;48.400;11.770;2022-11-10T10:06:06;1.40;;;1.30;;
14849;SDS011;7517;48.400;11.770;2022-11-10T10:08:44;1.30;;;1.20;;
14849;SDS011;7517;48.400;11.770;2022-11-10T10:11:35;1.40;;;0.90;;
14849;SDS011;7517;48.400;11.770;2022-11-10T10:14:24;1.50;;;1.27;;
14849;SDS011;7517;48.400;11.770;2022-11-10T10:17:25;1.77;;;1.00;;
14849;SDS011;7517;48.400;11.770;2022-11-10T10:20:03;3.17;;;0.90;;
14849;SDS011;7517;48.400;11.770;2022-11-10T10:22:49;1.63;;;0.70;;
14849;SDS011;7517;48.400;11.770;2022-11-10T10:25:33;1.43;;;0.90;;
14849;SDS011;7517;48.400;11.770;2022-11-10T10:28:05;1.37;;;0.73;;
14849;SDS011;7517;48.400;11.770;2022-11-10T10:30:46;0.80;;;0.80;;
14849;SDS011;7517;48.400;11.770;2022-11-10T10:33:14;1.47;;;0.63;;
14849;SDS011;7517;48.400;11.770;2022-11-10T10:35:44;1.60;;;0.87;;
14849;SDS011;7517;48.400;11.770;2022-11-10T10:38:16;1.33;;;0.60;;
14849;SDS011;7517;48.400;11.770;2022-11-10T10:40:51;1.47;;;0.80;;
14849;SDS011;7517;48.400;11.770;2022-11-10T10:43:23;1.47;;;0.73;;
14849;SDS011;7517;48.400;11.770;2022-11-10T10:46:02;1.60;;;1.00;;
14849;SDS011;7517;48.400;11.770;2022-11-10T10:48:33;1.13;;;0.80;;
14849;SDS011;7517;48.400;11.770;2022-11-10T10:51:00;1.00;;;0.60;;
14849;SDS011;7517;48.400;11.770;2022-11-10T10:53:46;0.90;;;0.60;;
14849;SDS011;7517;48.400;11.770;2022-11-10T10:56:15;0.90;;;0.60;;
14849;SDS011;7517;48.400;11.770;2022-11-10T10:58:49;2.07;;;0.70;;
14849;SDS011;7517;48.400;11.770;2022-11-10T11:01:23;2.20;;;1.03;;
14849;SDS011;7517;48.400;11.770;2022-11-10T11:03:56;0.73;;;0.63;;
14849;SDS011;7517;48.400;11.770;2022-11-10T11:06:25;1.20;;;0.70;;
14849;SDS011;7517;48.400;11.770;2022-11-10T11:08:55;1.60;;;0.63;;
14849;SDS011;7517;48.400;11.770;2022-11-10T11:11:27;1.70;;;1.13;;
14849;SDS011;7517;48.400;11.770;2022-11-10T11:14:13;0.97;;;0.67;;
14849;SDS011;7517;48.400;11.770;2022-11-10T11:16:47;2.67;;;0.90;;
14849;SDS011;7517;48.400;11.770;2022-11-10T11:19:17;2.03;;;0.83;;
14849;SDS011;7517;48.400;11.770;2022-11-10T11:21:54;1.50;;;0.80;;
14849;SDS011;7517;48.400;11.770;2022-11-10T11:24:54;0.80;;;0.60;;
14849;SDS011;7517;48.400;11.770;2022-11-10T11:27:35;1.07;;;0.70;;
14849;SDS011;7517;48.400;11.770;2022-11-10T11:30:13;2.80;;;1.10;;
14849;SDS011;7517;48.400;11.770;2022-11-10T11:32:56;1.53;;;0.90;;
14849;SDS011;7517;48.400;11.770;2022-11-10T11:35:43;2.37;;;0.90;;
14849;SDS011;7517;48.400;11.770;2022-11-10T11:38:21;1.30;;;0.80;;
14849;SDS011;7517;48.400;11.770;2022-11-10T11:40:59;0.70;;;0.70;;
14849;SDS011;7517;48.400;11.770;2022-11-10T11:46:52;2.67;;;0.53;;
14849;SDS011;7517;48.400;11.770;2022-11-10T11:49:32;1.47;;;0.77;;
14849;SDS011;7517;48.400;11.770;2022-11-10T11:52:18;0.70;;;0.70;;
14849;SDS011;7517;48.400;11.770;2022-11-10T11:55:01;1.00;;;0.63;;
14849;SDS011;7517;48.400;11.770;2022-11-10T11:57:49;4.00;;;0.70;;
14849;SDS011;7517;48.400;11.770;2022-11-10T12:00:37;1.40;;;0.77;;
14849;SDS011;7517;48.400;11.770;2022-11-10T12:03:24;1.20;;;0.80;;
14849;SDS011;7517;48.400;11.770;2022-11-10T12:06:28;0.93;;;0.60;;
14849;SDS011;7517;48.400;11.770;2022-11-10T12:09:07;3.13;;;0.90;;
14849;SDS011;7517;48.400;11.770;2022-11-10T12:11:50;1.37;;;0.70;;
14849;SDS011;7517;48.400;11.770;2022-11-10T12:14:34;0.70;;;0.53;;
14849;SDS011;7517;48.400;11.770;2022-11-10T12:17:19;1.50;;;0.97;;
14849;SDS011;7517;48.400;11.770;2022-11-10T12:20:02;1.47;;;1.03;;
14849;SDS011;7517;48.400;11.770;2022-11-10T12:22:48;1.63;;;1.00;;
14849;SDS011;7517;48.400;11.770;2022-11-10T12:25:30;1.37;;;0.77;;
14849;SDS011;7517;48.400;11.770;2022-11-10T12:28:08;1.90;;;0.67;;
14849;SDS011;7517;48.400;11.770;2022-11-10T12:30:42;4.43;;;1.63;;
14849;SDS011;7517;48.400;11.770;2022-11-10T12:33:15;1.80;;;0.70;;
14849;SDS011;7517;48.400;11.770;2022-11-10T12:35:56;1.80;;;0.60;;
14849;SDS011;7517;48.400;11.770;2022-11-10T12:38:30;2.00;;;0.70;;
14849;SDS011;7517;48.400;11.770;2022-11-10T12:41:10;2.87;;;0.77;;
14849;SDS011;7517;48.400;11.770;2022-11-10T12:43:44;0.90;;;0.50;;
14849;SDS011;7517;48.400;11.770;2022-11-10T12:46:30;1.13;;;0.70;;
14849;SDS011;7517;48.400;11.770;2022-11-10T12:49:00;1.17;;;0.50;;
14849;SDS011;7517;48.400;11.770;2022-11-10T12:51:43;4.40;;;0.80;;
14849;SDS011;7517;48.400;11.770;2022-11-10T12:54:19;2.13;;;0.70;;
14849;SDS011;7517;48.400;11.770;2022-11-10T12:56:52;1.07;;;0.60;;
14849;SDS011;7517;48.400;11.770;2022-11-10T12:59:27;2.07;;;0.60;;
14849;SDS011;7517;48.400;11.770;2022-11-10T13:02:00;1.23;;;0.37;;
14849;SDS011;7517;48.400;11.770;2022-11-10T13:04:31;0.40;;;0.40;;
14849;SDS011;7517;48.400;11.770;2022-11-10T13:07:00;0.63;;;0.30;;
14849;SDS011;7517;48.400;11.770;2022-11-10T13:09:32;0.93;;;0.50;;
14849;SDS011;7517;48.400;11.770;2022-11-10T13:12:13;2.33;;;0.50;;
14849;SDS011;7517;48.400;11.770;2022-11-10T13:14:44;0.57;;;0.50;;
14849;SDS011;7517;48.400;11.770;2022-11-10T13:23:20;0.53;;;0.40;;
14849;SDS011;7517;48.400;11.770;2022-11-10T13:25:55;0.80;;;0.70;;
14849;SDS011;7517;48.400;11.770;2022-11-10T13:28:54;1.70;;;0.40;;
14849;SDS011;7517;48.400;11.770;2022-11-10T13:31:37;0.80;;;0.30;;
14849;SDS011;7517;48.400;11.770;2022-11-10T13:34:25;0.63;;;0.30;;
14849;SDS011;7517;48.400;11.770;2022-11-10T13:37:00;0.90;;;0.60;;
14849;SDS011;7517;48.400;11.770;2022-11-10T13:39:49;0.73;;;0.40;;
14849;SDS011;7517;48.400;11.770;2022-11-10T13:42:18;0.73;;;0.40;;
14849;SDS011;7517;48.400;11.770;2022-11-10T13:44:48;2.00;;;0.50;;
14849;SDS011;7517;48.400;11.770;2022-11-10T13:47:23;0.93;;;0.50;;
14849;SDS011;7517;48.400;11.770;2022-11-10T13:50:22;1.83;;;0.47;;
14849;SDS011;7517;48.400;11.770;2022-11-10T13:53:12;0.80;;;0.43;;
14849;SDS011;7517;48.400;11.770;2022-11-10T13:56:01;4.27;;;0.50;;
14849;SDS011;7517;48.400;11.770;2022-11-10T13:58:43;1.73;;;0.63;;
14849;SDS011;7517;48.400;11.770;2022-11-10T14:01:24;2.20;;;0.60;;
14849;SDS011;7517;48.400;11.770;2022-11-10T14:03:57;0.80;;;0.60;;
14849;SDS011;7517;48.400;11.770;2022-11-10T14:06:28;0.70;;;0.30;;
14849;SDS011;7517;48.400;11.770;2022-11-10T14:09:10;0.80;;;0.60;;
14849;SDS011;7517;48.400;11.770;2022-11-10T14:11:52;1.20;;;0.60;;
14849;SDS011;7517;48.400;11.770;2022-11-10T14:14:27;0.50;;;0.43;;
14849;SDS011;7517;48.400;11.770;2022-11-10T14:17:11;0.80;;;0.60;;
14849;SDS011;7517;48.400;11.770;2022-11-10T14:19:44;2.07;;;0.60;;
14849;SDS011;7517;48.400;11.770;2022-11-10T14:22:14;1.03;;;0.60;;
14849;SDS011;7517;48.400;11.770;2022-11-10T14:24:54;0.77;;;0.60;;
14849;SDS011;7517;48.400;11.770;2022-11-10T14:27:28;1.10;;;0.67;;
14849;SDS011;7517;48.400;11.770;2022-11-10T14:30:10;2.03;;;0.70;;
14849;SDS011;7517;48.400;11.770;2022-11-10T14:32:55;0.47;;;0.47;;
14849;SDS011;7517;48.400;11.770;2022-11-10T14:35:25;1.33;;;0.50;;
14849;SDS011;7517;48.400;11.770;2022-11-10T14:37:58;1.80;;;0.70;;
14849;SDS011;7517;48.400;11.770;2022-11-10T14:40:29;1.90;;;0.70;;
14849;SDS011;7517;48.400;11.770;2022-11-10T14:42:57;0.80;;;0.80;;
14849;SDS011;7517;48.400;11.770;2022-11-10T14:45:27;1.40;;;0.50;;
14849;SDS011;7517;48.400;11.770;2022-11-10T14:47:55;1.37;;;0.50;;
14849;SDS011;7517;48.400;11.770;2022-11-10T14:50:25;1.10;;;0.37;;
14849;SDS011;7517;48.400;11.770;2022-11-10T14:52:57;1.83;;;0.50;;
14849;SDS011;7517;48.400;11.770;2022-11-10T14:55:28;1.17;;;0.60;;
14849;SDS011;7517;48.400;11.770;2022-11-10T14:58:01;0.87;;;0.63;;
14849;SDS011;7517;48.400;11.770;2022-11-10T15:00:38;1.30;;;0.70;;
14849;SDS011;7517;48.400;11.770;2022-11-10T15:03:09;1.67;;;1.07;;
14849;SDS011;7517;48.400;11.770;2022-11-10T15:05:42;0.83;;;0.40;;
14849;SDS011;7517;48.400;11.770;2022-11-10T15:08:10;1.20;;;1.10;;
14849;SDS011;7517;48.400;11.770;2022-11-10T15:10:42;4.07;;;2.13;;
14849;SDS011;7517;48.400;11.770;2022-11-10T15:13:34;1.83;;;1.30;;
14849;SDS011;7517;48.400;11.770;2022-11-10T15:16:21;1.03;;;0.93;;
14849;SDS011;7517;48.400;11.770;2022-11-10T15:18:51;1.00;;;0.87;;
14849;SDS011;7517;48.400;11.770;2022-11-10T15:21:21;1.83;;;1.20;;
14849;SDS011;7517;48.400;11.770;2022-11-10T15:23:58;1.37;;;1.27;;
14849;SDS011;7517;48.400;11.770;2022-11-10T15:26:31;1.80;;;1.10;;
14849;SDS011;7517;48.400;11.770;2022-11-10T15:29:04;2.20;;;1.50;;